createdAt,value
2022-09-18T00:00:35.318Z,13.94
2022-09-18T00:03:02.884Z,13.97
2022-09-18T00:05:30.397Z,13.96
2022-09-18T00:08:00.177Z,13.91
2022-09-18T00:10:27.691Z,13.96
2022-09-18T00:12:55.275Z,14.01
2022-09-18T00:15:22.863Z,13.97
2022-09-18T00:17:50.397Z,13.90
2022-09-18T00:20:18.082Z,13.82
2022-09-18T00:22:46.771Z,13.57
2022-09-18T00:25:15.669Z,13.61
2022-09-18T00:27:43.167Z,13.77
2022-09-18T00:30:11.534Z,13.80
2022-09-18T00:32:39.073Z,13.91
2022-09-18T00:35:07.440Z,13.78
2022-09-18T00:37:34.952Z,13.91
2022-09-18T00:40:03.084Z,13.93
2022-09-18T00:42:32.018Z,13.79
2022-09-18T00:45:00.218Z,13.77
2022-09-18T00:47:32.382Z,13.95
2022-09-18T00:50:11.644Z,13.85
2022-09-18T00:52:49.437Z,13.77
2022-09-18T00:55:19.586Z,13.81
2022-09-18T00:57:52.275Z,13.85
2022-09-18T01:00:19.992Z,13.94
2022-09-18T01:02:48.809Z,13.94
2022-09-18T01:05:19.957Z,13.88
2022-09-18T01:08:00.533Z,14.07
2022-09-18T01:10:40.232Z,13.95
2022-09-18T01:13:16.755Z,13.87
2022-09-18T01:15:51.202Z,13.94
2022-09-18T01:18:27.157Z,13.74
2022-09-18T01:21:08.458Z,13.63
2022-09-18T01:23:57.940Z,13.70
2022-09-18T01:26:41.577Z,13.61
2022-09-18T01:29:19.840Z,13.71
2022-09-18T01:31:52.727Z,13.90
2022-09-18T01:34:28.938Z,13.90
2022-09-18T01:37:03.150Z,13.95
2022-09-18T01:39:35.461Z,13.68
2022-09-18T01:42:05.904Z,13.82
2022-09-18T01:44:37.100Z,13.89
2022-09-18T01:47:11.346Z,13.86
2022-09-18T01:49:43.290Z,13.79
2022-09-18T01:52:16.790Z,13.79
2022-09-18T01:54:48.855Z,13.65
2022-09-18T01:57:22.030Z,13.77
2022-09-18T01:59:55.943Z,13.71
2022-09-18T02:02:28.900Z,13.73
2022-09-18T02:05:01.047Z,13.75
2022-09-18T02:07:36.225Z,13.64
2022-09-18T02:10:05.157Z,13.76
2022-09-18T02:12:35.806Z,13.66
2022-09-18T02:15:10.711Z,13.82
2022-09-18T02:17:42.385Z,13.77
2022-09-18T02:20:14.185Z,13.92
2022-09-18T02:22:44.703Z,13.87
2022-09-18T02:25:14.367Z,13.83
2022-09-18T02:27:42.842Z,14.02
2022-09-18T02:30:13.258Z,13.85
2022-09-18T02:32:41.502Z,13.89
2022-09-18T02:35:10.698Z,13.82
2022-09-18T02:37:51.342Z,13.88
2022-09-18T02:40:28.614Z,13.93
2022-09-18T02:43:11.564Z,14.01
2022-09-18T02:45:49.528Z,13.70
2022-09-18T02:48:31.380Z,13.57
2022-09-18T02:51:07.785Z,13.69
2022-09-18T02:53:41.074Z,13.65
2022-09-18T02:56:15.702Z,13.72
2022-09-18T02:58:47.902Z,13.50
2022-09-18T03:01:18.226Z,13.62
2022-09-18T03:03:45.856Z,13.69
2022-09-18T03:06:13.364Z,13.83
2022-09-18T03:08:40.981Z,13.75
2022-09-18T03:11:09.003Z,13.79
2022-09-18T03:13:36.516Z,13.68
2022-09-18T03:16:04.182Z,13.81
2022-09-18T03:18:33.025Z,13.84
2022-09-18T03:21:00.528Z,13.70
2022-09-18T03:23:28.083Z,13.69
2022-09-18T03:25:55.577Z,13.72
2022-09-18T03:28:23.079Z,13.73
2022-09-18T03:30:50.845Z,13.81
2022-09-18T03:33:18.334Z,13.82
2022-09-18T03:35:47.214Z,13.82
2022-09-18T03:38:15.083Z,13.76
2022-09-18T03:40:47.581Z,13.76
2022-09-18T03:43:15.488Z,13.88
2022-09-18T03:45:43.677Z,13.63
2022-09-18T03:48:11.304Z,13.59
2022-09-18T03:50:39.028Z,13.74
2022-09-18T03:53:09.367Z,13.75
2022-09-18T03:55:37.424Z,13.68
2022-09-18T03:58:05.081Z,13.74
2022-09-18T04:00:32.590Z,13.39
2022-09-18T04:03:00.224Z,13.62
2022-09-18T04:05:27.793Z,13.57
2022-09-18T04:07:55.358Z,13.61
2022-09-18T04:10:26.477Z,13.57
2022-09-18T04:12:54.030Z,13.53
2022-09-18T04:15:21.558Z,13.64
2022-09-18T04:17:49.049Z,13.65
2022-09-18T04:20:16.639Z,13.64
2022-09-18T04:22:44.214Z,13.69
2022-09-18T04:25:11.685Z,13.68
2022-09-18T04:27:40.534Z,13.69
2022-09-18T04:30:09.138Z,13.52
2022-09-18T04:32:36.625Z,13.37
2022-09-18T04:35:05.312Z,13.42
2022-09-18T04:37:32.816Z,13.46
2022-09-18T04:40:00.439Z,13.63
2022-09-18T04:42:28.014Z,13.34
2022-09-18T04:44:56.837Z,13.44
2022-09-18T04:47:24.617Z,13.46
2022-09-18T04:49:52.451Z,13.57
2022-09-18T04:52:20.166Z,13.67
2022-09-18T04:54:47.684Z,13.39
2022-09-18T04:57:15.246Z,13.40
2022-09-18T04:59:42.746Z,13.53
2022-09-18T05:02:11.664Z,13.54
2022-09-18T05:04:39.226Z,13.39
2022-09-18T05:07:06.938Z,13.17
2022-09-18T05:09:34.405Z,13.36
2022-09-18T05:12:02.223Z,13.51
2022-09-18T05:14:29.703Z,13.66
2022-09-18T05:16:57.444Z,13.74
2022-09-18T05:19:26.323Z,13.64
2022-09-18T05:21:53.846Z,13.38
2022-09-18T05:24:21.333Z,13.59
2022-09-18T05:26:49.210Z,13.52
2022-09-18T05:29:16.697Z,13.56
2022-09-18T05:31:44.735Z,13.65
2022-09-18T05:34:12.281Z,13.67
2022-09-18T05:36:41.189Z,13.68
2022-09-18T05:39:08.692Z,13.62
2022-09-18T05:41:36.374Z,13.76
2022-09-18T05:44:04.232Z,13.68
2022-09-18T05:46:31.853Z,13.72
2022-09-18T05:48:59.767Z,13.70
2022-09-18T05:51:27.288Z,13.57
2022-09-18T05:53:56.152Z,13.63
2022-09-18T05:56:23.865Z,13.59
2022-09-18T05:58:51.979Z,13.66
2022-09-18T06:01:19.606Z,13.73
2022-09-18T06:03:50.158Z,13.86
2022-09-18T06:06:17.725Z,13.80
2022-09-18T06:08:45.244Z,13.74
2022-09-18T06:11:14.156Z,13.78
2022-09-18T06:13:41.660Z,13.93
2022-09-18T06:16:09.284Z,13.91
2022-09-18T06:18:36.850Z,13.74
2022-09-18T06:21:04.657Z,13.72
2022-09-18T06:23:32.372Z,13.86
2022-09-18T06:26:01.605Z,13.82
2022-09-18T06:28:32.473Z,13.78
2022-09-18T06:31:00.603Z,13.78
2022-09-18T06:33:29.202Z,13.90
2022-09-18T06:35:57.165Z,14.02
2022-09-18T06:38:24.816Z,14.07
2022-09-18T06:40:53.271Z,14.06
2022-09-18T06:43:21.147Z,14.07
2022-09-18T06:45:54.147Z,14.03
2022-09-18T06:48:21.824Z,14.14
2022-09-18T06:50:54.334Z,14.16
2022-09-18T06:53:22.618Z,13.94
2022-09-18T06:55:50.642Z,14.03
2022-09-18T06:58:19.062Z,14.14
2022-09-18T07:00:47.324Z,13.94
2022-09-18T07:03:16.353Z,14.01
2022-09-18T07:05:45.978Z,14.07
2022-09-18T07:08:13.582Z,13.91
2022-09-18T07:10:41.746Z,14.03
2022-09-18T07:13:09.674Z,13.92
2022-09-18T07:15:37.409Z,14.09
2022-09-18T07:18:06.794Z,14.07
2022-09-18T07:20:35.995Z,13.95
2022-09-18T07:23:04.111Z,13.82
2022-09-18T07:25:33.866Z,14.05
2022-09-18T07:28:07.654Z,14.10
2022-09-18T07:30:35.333Z,14.19
2022-09-18T07:33:03.613Z,14.16
2022-09-18T07:35:31.517Z,14.18
2022-09-18T07:38:00.959Z,14.12
2022-09-18T07:40:29.573Z,14.19
2022-09-18T07:42:59.797Z,14.36
2022-09-18T07:45:27.453Z,14.30
2022-09-18T07:47:54.967Z,14.50
2022-09-18T07:50:23.094Z,14.44
2022-09-18T07:52:52.111Z,14.45
2022-09-18T07:55:22.983Z,14.51
2022-09-18T07:57:55.573Z,14.60
2022-09-18T08:00:23.173Z,14.60
2022-09-18T08:02:50.857Z,14.13
2022-09-18T08:05:18.438Z,14.47
2022-09-18T08:07:45.963Z,14.41
2022-09-18T08:10:13.484Z,14.56
2022-09-18T08:12:42.404Z,14.52
2022-09-18T08:15:10.784Z,14.57
2022-09-18T08:17:45.404Z,14.57
2022-09-18T08:20:13.139Z,14.66
2022-09-18T08:22:40.926Z,14.44
2022-09-18T08:25:09.552Z,14.40
2022-09-18T08:27:38.308Z,14.35
2022-09-18T08:30:09.481Z,14.53
2022-09-18T08:32:37.533Z,14.68
2022-09-18T08:35:06.314Z,14.50
2022-09-18T08:37:34.225Z,14.61
2022-09-18T08:40:02.121Z,14.69
2022-09-18T08:42:38.034Z,14.71
2022-09-18T08:45:25.694Z,14.75
2022-09-18T08:47:58.118Z,14.86
2022-09-18T08:50:29.195Z,14.68
2022-09-18T08:53:00.683Z,14.64
2022-09-18T08:55:33.290Z,14.56
2022-09-18T08:58:04.362Z,14.72
2022-09-18T09:00:38.219Z,14.71
2022-09-18T09:03:21.197Z,14.74
2022-09-18T09:05:54.102Z,14.67
2022-09-18T09:08:52.777Z,14.72
2022-09-18T09:11:30.267Z,14.86
2022-09-18T09:14:14.857Z,14.68
2022-09-18T09:16:45.541Z,14.88
2022-09-18T09:19:27.775Z,14.80
2022-09-18T09:22:03.590Z,14.80
2022-09-18T09:24:35.558Z,14.78
2022-09-18T09:27:19.282Z,14.90
2022-09-18T09:29:48.153Z,14.93
2022-09-18T09:32:25.738Z,14.75
2022-09-18T09:34:58.145Z,14.83
2022-09-18T09:37:35.851Z,14.78
2022-09-18T09:40:11.463Z,14.77
2022-09-18T09:42:44.394Z,14.73
2022-09-18T09:45:16.395Z,14.80
2022-09-18T09:47:49.575Z,14.57
2022-09-18T09:50:39.159Z,14.74
2022-09-18T09:53:12.085Z,14.69
2022-09-18T09:55:48.709Z,14.44
2022-09-18T09:58:28.197Z,14.21
2022-09-18T10:01:02.740Z,14.52
2022-09-18T10:03:39.405Z,14.66
2022-09-18T10:06:18.018Z,14.67
2022-09-18T10:08:51.345Z,14.58
2022-09-18T10:11:19.025Z,14.69
2022-09-18T10:13:51.906Z,14.61
2022-09-18T10:16:23.399Z,14.55
2022-09-18T10:18:52.425Z,14.38
2022-09-18T10:21:21.947Z,14.29
2022-09-18T10:23:55.788Z,14.52
2022-09-18T10:26:29.234Z,14.52
2022-09-18T10:28:56.721Z,14.38
2022-09-18T10:31:24.262Z,14.36
2022-09-18T10:33:53.578Z,14.18
2022-09-18T10:36:25.889Z,14.22
2022-09-18T10:38:53.466Z,14.16
2022-09-18T10:41:28.511Z,14.15
2022-09-18T10:43:59.360Z,14.23
2022-09-18T10:46:30.212Z,14.31
2022-09-18T10:49:03.535Z,14.44
2022-09-18T10:51:31.052Z,14.64
2022-09-18T10:54:04.982Z,14.57
2022-09-18T10:56:33.384Z,14.70
2022-09-18T10:59:34.449Z,14.61
2022-09-18T11:02:04.961Z,14.60
2022-09-18T11:04:34.423Z,14.48
2022-09-18T11:07:07.269Z,14.60
2022-09-18T11:09:39.100Z,14.66
2022-09-18T11:12:15.555Z,14.70
2022-09-18T11:14:46.894Z,14.89
2022-09-18T11:17:26.382Z,14.85
2022-09-18T11:19:57.750Z,14.84
2022-09-18T11:22:42.593Z,15.02
2022-09-18T11:25:20.665Z,14.99
2022-09-18T11:27:51.026Z,14.67
2022-09-18T11:30:23.852Z,14.57
2022-09-18T11:32:55.395Z,14.49
2022-09-18T11:35:26.577Z,14.67
2022-09-18T11:37:56.446Z,14.72
2022-09-18T11:40:26.538Z,14.93
2022-09-18T11:42:55.870Z,14.66
2022-09-18T11:45:39.997Z,14.83
2022-09-18T11:48:17.729Z,14.87
2022-09-18T11:50:47.552Z,14.93
2022-09-18T11:53:18.849Z,14.91
2022-09-18T11:55:51.655Z,15.01
2022-09-18T11:58:23.971Z,15.05
2022-09-18T12:00:56.225Z,14.95
2022-09-18T12:03:28.790Z,15.12
2022-09-18T12:06:01.614Z,15.04
2022-09-18T12:08:41.023Z,15.08
2022-09-18T12:11:19.808Z,14.99
2022-09-18T12:13:59.444Z,14.92
2022-09-18T12:16:41.613Z,14.65
2022-09-18T12:19:15.922Z,14.43
2022-09-18T12:21:52.026Z,14.61
2022-09-18T12:24:19.593Z,14.68
2022-09-18T12:26:59.234Z,14.64
2022-09-18T12:29:42.851Z,14.78
2022-09-18T12:32:26.806Z,14.89
2022-09-18T12:35:02.777Z,14.82
2022-09-18T12:37:48.012Z,14.87
2022-09-18T12:40:34.021Z,14.95
2022-09-18T12:43:16.737Z,15.01
2022-09-18T12:46:13.095Z,14.84
2022-09-18T12:48:55.732Z,14.71
2022-09-18T12:51:35.535Z,14.79
2022-09-18T12:54:26.908Z,14.82
2022-09-18T12:57:07.991Z,14.77
2022-09-18T12:59:52.331Z,14.81
2022-09-18T13:02:32.606Z,14.84
2022-09-18T13:05:05.069Z,14.83
2022-09-18T13:07:38.384Z,14.90
2022-09-18T13:10:15.260Z,14.97
2022-09-18T13:12:49.210Z,14.94
2022-09-18T13:15:22.344Z,14.86
2022-09-18T13:17:55.150Z,14.85
2022-09-18T13:20:28.982Z,14.82
2022-09-18T13:22:57.270Z,14.81
2022-09-18T13:25:30.853Z,14.83
2022-09-18T13:28:00.387Z,14.66
2022-09-18T13:30:29.868Z,14.80
2022-09-18T13:32:58.536Z,14.89
2022-09-18T13:35:29.839Z,14.89
2022-09-18T13:38:22.894Z,14.69
2022-09-18T13:41:00.153Z,14.75
2022-09-18T13:43:47.358Z,14.70
2022-09-18T13:46:33.881Z,14.44
2022-09-18T13:49:13.706Z,14.54
2022-09-18T13:51:41.670Z,14.34
2022-09-18T13:54:27.903Z,14.42
2022-09-18T13:57:22.414Z,14.58
2022-09-18T13:59:52.811Z,14.63
2022-09-18T14:02:32.168Z,14.61
2022-09-18T14:05:29.535Z,14.78
2022-09-18T14:08:04.357Z,14.51
2022-09-18T14:10:39.133Z,14.49
2022-09-18T14:13:34.155Z,14.67
2022-09-18T14:16:06.966Z,14.61
2022-09-18T14:18:38.504Z,14.45
2022-09-18T14:21:22.305Z,14.37
2022-09-18T14:24:06.297Z,14.31
2022-09-18T14:26:57.445Z,14.22
2022-09-18T14:29:31.249Z,13.99
2022-09-18T14:32:00.690Z,14.05
2022-09-18T14:34:38.340Z,13.90
2022-09-18T14:37:24.151Z,14.16
2022-09-18T14:39:53.915Z,14.29
2022-09-18T14:42:33.284Z,14.27
2022-09-18T14:45:20.174Z,14.36
2022-09-18T14:47:49.923Z,14.08
2022-09-18T14:50:30.961Z,14.24
2022-09-18T14:52:59.919Z,14.27
2022-09-18T14:55:32.027Z,14.14
2022-09-18T14:58:04.002Z,14.33
2022-09-18T15:00:36.019Z,14.18
2022-09-18T15:03:07.511Z,14.14
2022-09-18T15:05:35.742Z,14.19
2022-09-18T15:08:06.279Z,14.18
2022-09-18T15:10:36.384Z,14.15
2022-09-18T15:13:07.089Z,14.14
2022-09-18T15:15:39.359Z,13.98
2022-09-18T15:18:19.273Z,13.93
2022-09-18T15:20:51.334Z,14.00
2022-09-18T15:23:21.185Z,13.96
2022-09-18T15:25:53.495Z,14.05
2022-09-18T15:28:23.676Z,14.00
2022-09-18T15:30:57.211Z,13.97
2022-09-18T15:33:27.304Z,14.19
2022-09-18T15:35:56.418Z,14.15
2022-09-18T15:38:26.891Z,14.07
2022-09-18T15:40:54.673Z,14.03
2022-09-18T15:43:40.960Z,13.89
2022-09-18T15:46:11.332Z,13.80
2022-09-18T15:48:44.244Z,13.82
2022-09-18T15:51:16.019Z,13.85
2022-09-18T15:54:01.894Z,13.82
2022-09-18T15:56:30.861Z,13.74
2022-09-18T15:58:59.994Z,13.86
2022-09-18T16:01:35.183Z,13.96
2022-09-18T16:04:08.798Z,13.96
2022-09-18T16:06:44.395Z,13.98
2022-09-18T16:09:24.903Z,14.06
2022-09-18T16:11:52.741Z,13.91
2022-09-18T16:14:43.898Z,13.88
2022-09-18T16:17:54.926Z,13.64
2022-09-18T16:20:30.713Z,13.76
2022-09-18T16:23:06.429Z,13.80
2022-09-18T16:25:37.366Z,13.75
2022-09-18T16:28:20.576Z,13.52
2022-09-18T16:30:48.437Z,13.82
2022-09-18T16:33:20.478Z,13.84
2022-09-18T16:35:54.009Z,13.94
2022-09-18T16:38:21.938Z,13.96
2022-09-18T16:40:49.472Z,13.74
2022-09-18T16:43:17.070Z,13.94
2022-09-18T16:45:44.728Z,13.81
2022-09-18T16:48:12.519Z,13.57
2022-09-18T16:50:41.697Z,13.67
2022-09-18T16:53:09.532Z,13.67
2022-09-18T16:55:39.428Z,13.54
2022-09-18T16:58:07.332Z,13.72
2022-09-18T17:00:37.492Z,13.62
2022-09-18T17:03:06.189Z,13.64
2022-09-18T17:05:34.600Z,13.59
2022-09-18T17:08:04.522Z,13.75
2022-09-18T17:10:32.317Z,13.78
2022-09-18T17:12:59.847Z,13.54
2022-09-18T17:15:27.483Z,13.49
2022-09-18T17:17:55.402Z,13.63
2022-09-18T17:20:23.024Z,13.67
2022-09-18T17:22:51.340Z,13.75
2022-09-18T17:25:20.417Z,13.66
2022-09-18T17:27:50.809Z,13.62
2022-09-18T17:30:18.604Z,13.66
2022-09-18T17:32:48.079Z,13.56
2022-09-18T17:35:16.097Z,13.49
2022-09-18T17:37:43.882Z,13.47
2022-09-18T17:40:11.892Z,13.55
2022-09-18T17:42:41.434Z,13.48
2022-09-18T17:45:09.956Z,13.31
2022-09-18T17:47:37.471Z,13.34
2022-09-18T17:50:06.083Z,13.22
2022-09-18T17:52:34.635Z,13.20
2022-09-18T17:55:02.316Z,12.88
2022-09-18T17:57:30.979Z,12.81
2022-09-18T17:59:59.842Z,12.85
2022-09-18T18:02:27.500Z,12.77
2022-09-18T18:04:55.259Z,13.01
2022-09-18T18:07:23.484Z,12.95
2022-09-18T18:09:51.050Z,12.95
2022-09-18T18:12:18.532Z,12.93
2022-09-18T18:14:46.400Z,12.91
2022-09-18T18:17:15.235Z,12.89
2022-09-18T18:19:42.755Z,13.03
2022-09-18T18:22:10.246Z,12.98
2022-09-18T18:24:38.381Z,12.83
2022-09-18T18:27:06.155Z,12.69
2022-09-18T18:29:33.645Z,12.83
2022-09-18T18:32:01.287Z,12.74
2022-09-18T18:34:31.400Z,12.76
2022-09-18T18:37:00.571Z,12.81
2022-09-18T18:39:28.062Z,12.75
2022-09-18T18:41:55.671Z,12.60
2022-09-18T18:44:23.227Z,12.81
2022-09-18T18:46:50.998Z,12.73
2022-09-18T18:49:18.850Z,12.67
2022-09-18T18:51:48.849Z,12.68
2022-09-18T18:54:17.548Z,12.62
2022-09-18T18:56:46.218Z,12.74
2022-09-18T18:59:15.505Z,12.84
2022-09-18T19:01:43.678Z,12.84
2022-09-18T19:04:13.429Z,12.58
2022-09-18T19:06:43.007Z,12.84
2022-09-18T19:09:18.093Z,12.74
2022-09-18T19:11:48.197Z,12.50
2022-09-18T19:14:17.782Z,12.48
2022-09-18T19:16:46.028Z,12.56
2022-09-18T19:19:14.991Z,12.12
2022-09-18T19:21:43.246Z,12.30
2022-09-18T19:24:13.223Z,12.30
2022-09-18T19:26:42.716Z,12.46
2022-09-18T19:29:12.896Z,12.48
2022-09-18T19:31:42.545Z,12.43
2022-09-18T19:34:12.736Z,12.47
2022-09-18T19:36:41.029Z,12.32
2022-09-18T19:39:13.048Z,12.36
2022-09-18T19:41:44.706Z,12.30
2022-09-18T19:44:15.639Z,12.29
2022-09-18T19:46:43.229Z,12.34
2022-09-18T19:49:16.537Z,12.27
2022-09-18T19:51:44.132Z,12.24
2022-09-18T19:54:13.486Z,12.28
2022-09-18T19:56:46.394Z,12.24
2022-09-18T19:59:14.136Z,11.96
2022-09-18T20:01:42.124Z,12.09
2022-09-18T20:04:10.068Z,12.17
2022-09-18T20:06:38.719Z,12.26
2022-09-18T20:09:06.293Z,12.24
2022-09-18T20:11:35.194Z,12.11
2022-09-18T20:14:03.250Z,11.93
2022-09-18T20:16:30.849Z,11.78
2022-09-18T20:18:58.393Z,11.92
2022-09-18T20:21:26.276Z,11.98
2022-09-18T20:23:57.695Z,12.00
2022-09-18T20:26:26.090Z,11.85
2022-09-18T20:28:54.973Z,12.02
2022-09-18T20:31:23.969Z,11.97
2022-09-18T20:33:55.553Z,12.05
2022-09-18T20:36:23.419Z,11.99
2022-09-18T20:38:51.481Z,11.97
2022-09-18T20:41:20.963Z,12.10
2022-09-18T20:43:49.696Z,12.04
2022-09-18T20:46:19.484Z,11.93
2022-09-18T20:48:53.617Z,11.87
2022-09-18T20:51:23.112Z,11.90
2022-09-18T20:53:51.705Z,11.85
2022-09-18T20:56:21.070Z,11.90
2022-09-18T20:58:51.196Z,11.71
2022-09-18T21:01:23.085Z,12.05
2022-09-18T21:03:56.406Z,12.12
2022-09-18T21:06:25.096Z,12.03
2022-09-18T21:08:54.431Z,11.96
2022-09-18T21:11:24.021Z,12.03
2022-09-18T21:13:53.783Z,12.12
2022-09-18T21:16:25.131Z,12.15
2022-09-18T21:18:55.524Z,12.11
2022-09-18T21:21:23.069Z,12.21
2022-09-18T21:24:01.329Z,12.14
2022-09-18T21:26:32.837Z,12.30
2022-09-18T21:29:02.459Z,12.02
2022-09-18T21:31:33.492Z,11.98
2022-09-18T21:34:02.503Z,12.04
2022-09-18T21:36:30.358Z,12.16
2022-09-18T21:38:57.828Z,12.19
2022-09-18T21:41:26.236Z,12.08
2022-09-18T21:43:56.004Z,11.96
2022-09-18T21:46:24.190Z,12.13
2022-09-18T21:48:56.646Z,11.98
2022-09-18T21:51:24.155Z,12.06
2022-09-18T21:53:51.634Z,12.04
2022-09-18T21:56:21.229Z,11.71
2022-09-18T21:58:48.940Z,11.59
2022-09-18T22:01:19.023Z,11.85
2022-09-18T22:03:52.225Z,12.02
2022-09-18T22:06:22.901Z,12.12
2022-09-18T22:08:52.433Z,12.38
2022-09-18T22:11:23.482Z,12.42
2022-09-18T22:13:52.461Z,12.54
2022-09-18T22:16:20.610Z,12.52
2022-09-18T22:18:48.393Z,12.44
2022-09-18T22:21:20.192Z,12.30
2022-09-18T22:23:54.269Z,12.48
2022-09-18T22:26:23.229Z,12.55
2022-09-18T22:28:52.670Z,12.56
2022-09-18T22:31:21.524Z,12.24
2022-09-18T22:33:49.925Z,12.30
2022-09-18T22:36:17.417Z,12.22
2022-09-18T22:38:44.928Z,12.39
2022-09-18T22:41:13.743Z,12.54
2022-09-18T22:43:41.309Z,12.42
2022-09-18T22:46:10.360Z,12.62
2022-09-18T22:48:38.825Z,12.73
2022-09-18T22:51:08.827Z,12.67
2022-09-18T22:53:37.257Z,12.76
2022-09-18T22:56:06.497Z,12.73
2022-09-18T22:58:35.751Z,12.68
2022-09-18T23:01:08.925Z,12.67
2022-09-18T23:03:37.407Z,12.68
2022-09-18T23:06:07.266Z,12.62
2022-09-18T23:08:35.578Z,12.70
2022-09-18T23:11:04.285Z,12.54
2022-09-18T23:13:32.726Z,12.63
2022-09-18T23:16:08.394Z,12.78
2022-09-18T23:18:36.237Z,12.78
2022-09-18T23:21:05.465Z,12.81
2022-09-18T23:23:35.127Z,12.89
2022-09-18T23:26:04.686Z,12.83
2022-09-18T23:28:33.997Z,12.83
2022-09-18T23:31:08.661Z,12.76
2022-09-18T23:33:36.219Z,12.72
2022-09-18T23:36:08.958Z,12.78
2022-09-18T23:38:36.555Z,12.72
2022-09-18T23:41:05.686Z,12.82
2022-09-18T23:43:33.913Z,12.88
2022-09-18T23:46:01.698Z,12.82
2022-09-18T23:48:31.293Z,12.80
2022-09-18T23:51:00.868Z,12.76
2022-09-18T23:53:30.720Z,12.63
2022-09-18T23:56:03.018Z,12.52
2022-09-18T23:58:30.729Z,12.62
